createdAt,value
2022-12-19T00:00:34.535Z,16.80
2022-12-19T00:03:02.602Z,16.67
2022-12-19T00:05:30.703Z,17.17
2022-12-19T00:07:58.986Z,17.67
2022-12-19T00:10:30.234Z,16.13
2022-12-19T00:12:59.489Z,15.87
2022-12-19T00:15:27.401Z,16.33
2022-12-19T00:17:55.263Z,16.73
2022-12-19T00:20:23.173Z,15.80
2022-12-19T00:22:51.160Z,15.37
2022-12-19T00:25:21.957Z,16.37
2022-12-19T00:27:49.858Z,16.93
2022-12-19T00:30:19.850Z,16.50
2022-12-19T00:32:48.071Z,16.40
2022-12-19T00:35:16.137Z,16.20
2022-12-19T00:37:49.579Z,16.57
2022-12-19T00:40:18.242Z,17.10
2022-12-19T00:42:51.704Z,16.93
2022-12-19T00:45:22.983Z,16.83
2022-12-19T00:47:50.924Z,16.37
2022-12-19T00:50:18.933Z,17.17
2022-12-19T00:52:46.775Z,16.73
2022-12-19T00:55:18.598Z,17.83
2022-12-19T00:57:47.519Z,17.03
2022-12-19T01:00:16.676Z,17.17
2022-12-19T01:02:46.247Z,17.33
2022-12-19T01:05:15.544Z,16.03
2022-12-19T01:07:43.428Z,16.30
2022-12-19T01:10:11.862Z,16.23
2022-12-19T01:12:47.669Z,16.30
2022-12-19T01:15:17.645Z,17.00
2022-12-19T01:17:47.149Z,16.93
2022-12-19T01:20:18.150Z,17.60
2022-12-19T01:22:54.578Z,17.37
2022-12-19T01:25:22.434Z,17.07
2022-12-19T01:27:50.423Z,17.00
2022-12-19T01:30:18.486Z,17.40
2022-12-19T01:32:48.898Z,16.57
2022-12-19T01:35:21.539Z,17.47
2022-12-19T01:37:50.750Z,17.70
2022-12-19T01:40:18.733Z,17.33
2022-12-19T01:42:46.580Z,18.03
2022-12-19T01:45:33.952Z,18.47
2022-12-19T01:48:14.100Z,17.97
2022-12-19T01:51:00.505Z,17.00
2022-12-19T01:53:48.344Z,18.17
2022-12-19T01:56:18.088Z,17.20
2022-12-19T01:58:46.995Z,17.13
2022-12-19T02:01:16.188Z,16.87
2022-12-19T02:03:46.345Z,17.73
2022-12-19T02:06:17.512Z,17.07
2022-12-19T02:08:48.221Z,17.20
2022-12-19T02:11:16.157Z,18.10
2022-12-19T02:13:44.846Z,17.23
2022-12-19T02:16:28.060Z,17.00
2022-12-19T02:19:14.411Z,18.80
2022-12-19T02:21:54.982Z,17.07
2022-12-19T02:25:00.917Z,18.13
2022-12-19T02:28:01.132Z,17.07
2022-12-19T02:30:45.267Z,18.13
2022-12-19T02:33:20.111Z,19.03
2022-12-19T02:35:56.959Z,18.63
2022-12-19T02:38:31.335Z,18.50
2022-12-19T02:41:04.827Z,17.47
2022-12-19T02:43:37.536Z,17.53
2022-12-19T02:46:10.438Z,18.03
2022-12-19T02:48:40.503Z,18.30
2022-12-19T02:51:08.799Z,18.73
2022-12-19T02:53:40.025Z,17.83
2022-12-19T02:56:43.947Z,18.33
2022-12-19T02:59:49.497Z,17.83
2022-12-19T03:02:31.591Z,17.60
2022-12-19T03:05:06.596Z,18.10
2022-12-19T03:07:39.336Z,18.73
2022-12-19T03:10:13.928Z,18.10
2022-12-19T03:12:49.505Z,19.70
2022-12-19T03:15:17.899Z,19.53
2022-12-19T03:17:47.757Z,19.23
2022-12-19T03:20:23.126Z,19.17
2022-12-19T03:22:51.383Z,19.13
2022-12-19T03:25:20.501Z,19.50
2022-12-19T03:27:50.501Z,19.23
2022-12-19T03:30:18.502Z,18.83
2022-12-19T03:32:48.912Z,19.03
2022-12-19T03:35:21.924Z,19.33
2022-12-19T03:37:53.153Z,18.57
2022-12-19T03:40:24.658Z,19.17
2022-12-19T03:43:12.640Z,19.70
2022-12-19T03:45:54.346Z,19.53
2022-12-19T03:48:31.626Z,18.87
2022-12-19T03:51:09.167Z,18.53
2022-12-19T03:53:46.973Z,19.27
2022-12-19T03:56:21.333Z,18.27
2022-12-19T03:58:53.516Z,19.37
2022-12-19T04:01:22.577Z,18.30
2022-12-19T04:03:52.427Z,18.27
2022-12-19T04:06:21.054Z,17.37
2022-12-19T04:08:49.681Z,18.00
2022-12-19T04:11:20.880Z,17.53
2022-12-19T04:13:53.141Z,17.27
2022-12-19T04:16:25.970Z,17.77
2022-12-19T04:19:00.243Z,19.33
2022-12-19T04:21:33.496Z,17.73
2022-12-19T04:24:07.685Z,17.83
2022-12-19T04:26:37.554Z,17.00
2022-12-19T04:29:07.195Z,15.77
2022-12-19T04:31:36.086Z,14.93
2022-12-19T04:34:05.434Z,14.93
2022-12-19T04:36:33.579Z,14.47
2022-12-19T04:39:01.416Z,15.23
2022-12-19T04:41:29.264Z,15.67
2022-12-19T04:43:57.176Z,14.97
2022-12-19T04:46:25.127Z,15.53
2022-12-19T04:48:53.164Z,16.37
2022-12-19T04:51:22.571Z,15.33
2022-12-19T04:53:50.502Z,16.10
2022-12-19T04:56:18.409Z,14.27
2022-12-19T04:58:46.350Z,17.03
2022-12-19T05:01:14.865Z,17.00
2022-12-19T05:03:43.009Z,14.43
2022-12-19T05:06:12.740Z,18.00
2022-12-19T05:08:44.174Z,16.97
2022-12-19T05:11:19.384Z,18.53
2022-12-19T05:13:49.803Z,18.60
2022-12-19T05:16:18.181Z,20.33
2022-12-19T05:18:46.282Z,18.20
2022-12-19T05:21:14.524Z,15.03
2022-12-19T05:23:43.983Z,20.43
2022-12-19T05:26:13.114Z,16.97
2022-12-19T05:28:41.252Z,18.43
2022-12-19T05:31:12.908Z,16.07
2022-12-19T05:33:42.387Z,15.87
2022-12-19T05:36:11.812Z,17.13
2022-12-19T05:38:39.875Z,15.57
2022-12-19T05:41:10.832Z,20.70
2022-12-19T05:43:44.891Z,18.00
2022-12-19T05:46:13.180Z,14.87
2022-12-19T05:48:41.089Z,25.73
2022-12-19T05:51:09.396Z,13.73
2022-12-19T05:53:38.003Z,13.03
2022-12-19T05:56:08.726Z,12.33
2022-12-19T05:58:39.232Z,12.77
2022-12-19T06:01:09.224Z,13.10
2022-12-19T06:03:37.192Z,12.73
2022-12-19T06:06:06.590Z,12.37
2022-12-19T06:08:35.223Z,12.57
2022-12-19T06:11:07.126Z,12.63
2022-12-19T06:13:36.740Z,13.57
2022-12-19T06:16:09.165Z,12.50
2022-12-19T06:18:42.859Z,12.63
2022-12-19T06:21:14.444Z,12.30
2022-12-19T06:23:42.969Z,12.97
2022-12-19T06:26:18.624Z,12.20
2022-12-19T06:28:48.191Z,12.17
2022-12-19T06:31:17.710Z,12.43
2022-12-19T06:33:45.735Z,11.97
2022-12-19T06:36:20.246Z,13.30
2022-12-19T06:38:48.495Z,15.10
2022-12-19T06:41:34.436Z,22.33
2022-12-19T06:44:03.765Z,22.10
2022-12-19T06:46:33.880Z,20.20
2022-12-19T06:49:02.251Z,17.87
2022-12-19T06:51:30.808Z,25.67
2022-12-19T06:53:58.844Z,20.43
2022-12-19T06:56:26.918Z,27.50
2022-12-19T06:58:54.961Z,23.40
2022-12-19T07:01:32.161Z,26.37
2022-12-19T07:04:01.765Z,18.07
2022-12-19T07:06:29.650Z,20.40
2022-12-19T07:08:57.647Z,20.93
2022-12-19T07:11:25.605Z,28.80
2022-12-19T07:13:53.479Z,25.20
2022-12-19T07:16:21.404Z,23.80
2022-12-19T07:18:49.531Z,25.93
2022-12-19T07:21:18.914Z,20.37
2022-12-19T07:23:47.215Z,18.20
2022-12-19T07:26:15.260Z,22.17
2022-12-19T07:28:44.444Z,22.40
2022-12-19T07:31:12.856Z,26.80
2022-12-19T07:33:43.708Z,22.80
2022-12-19T07:36:11.678Z,22.43
2022-12-19T07:38:40.921Z,19.00
2022-12-19T07:41:08.939Z,16.47
2022-12-19T07:43:36.931Z,16.67
2022-12-19T07:46:04.833Z,15.90
2022-12-19T07:48:32.864Z,16.60
2022-12-19T07:51:00.748Z,17.83
2022-12-19T07:53:31.906Z,18.97
2022-12-19T07:56:01.359Z,18.60
2022-12-19T07:58:29.339Z,21.50
2022-12-19T08:00:58.354Z,19.93
2022-12-19T08:03:26.543Z,16.23
2022-12-19T08:06:01.965Z,17.97
2022-12-19T08:08:30.338Z,16.10
2022-12-19T08:11:06.306Z,16.20
2022-12-19T08:13:44.648Z,17.40
2022-12-19T08:16:14.452Z,16.77
2022-12-19T08:18:42.424Z,16.93
2022-12-19T08:21:10.974Z,16.53
2022-12-19T08:23:39.595Z,16.57
2022-12-19T08:26:09.470Z,17.37
2022-12-19T08:28:39.344Z,17.37
2022-12-19T08:31:08.642Z,17.53
2022-12-19T08:33:36.778Z,22.07
2022-12-19T08:36:06.056Z,18.40
2022-12-19T08:38:34.188Z,16.13
2022-12-19T08:41:02.273Z,17.70
2022-12-19T08:43:30.542Z,16.90
2022-12-19T08:46:00.408Z,16.90
2022-12-19T08:48:28.509Z,15.60
2022-12-19T08:50:59.030Z,16.87
2022-12-19T08:53:29.307Z,16.10
2022-12-19T08:55:58.144Z,15.77
2022-12-19T08:58:26.561Z,21.83
2022-12-19T09:01:01.746Z,26.43
2022-12-19T09:03:44.943Z,22.07
2022-12-19T09:06:22.600Z,20.20
2022-12-19T09:08:50.597Z,17.90
2022-12-19T09:11:21.161Z,18.73
2022-12-19T09:13:50.372Z,20.00
2022-12-19T09:16:21.030Z,18.83
2022-12-19T09:18:51.661Z,18.57
2022-12-19T09:21:20.754Z,17.47
2022-12-19T09:23:49.831Z,18.00
2022-12-19T09:26:18.347Z,17.30
2022-12-19T09:28:48.231Z,16.90
2022-12-19T09:31:18.100Z,16.83
2022-12-19T09:33:46.689Z,17.73
2022-12-19T09:36:17.793Z,16.77
2022-12-19T09:38:46.030Z,18.30
2022-12-19T09:41:42.660Z,17.53
2022-12-19T09:44:25.004Z,16.67
2022-12-19T09:46:58.218Z,16.77
2022-12-19T09:49:30.147Z,17.00
2022-12-19T09:52:04.272Z,16.80
2022-12-19T09:54:36.831Z,16.07
2022-12-19T09:57:11.744Z,17.00
2022-12-19T09:59:49.595Z,16.53
2022-12-19T10:02:38.441Z,15.83
2022-12-19T10:05:38.002Z,15.10
2022-12-19T10:08:14.730Z,16.37
2022-12-19T10:12:46.511Z,16.47
2022-12-19T10:14:03.960Z,16.27
2022-12-19T10:16:38.834Z,15.27
2022-12-19T10:19:09.312Z,17.47
2022-12-19T10:22:16.532Z,16.67
2022-12-19T10:25:09.262Z,15.87
2022-12-19T10:27:59.227Z,15.90
2022-12-19T10:30:31.943Z,15.83
2022-12-19T10:33:11.649Z,14.93
2022-12-19T10:35:49.251Z,15.77
2022-12-19T10:38:24.988Z,15.77
2022-12-19T10:41:05.076Z,16.37
2022-12-19T10:43:44.771Z,16.70
2022-12-19T10:46:18.973Z,16.47
2022-12-19T10:48:47.597Z,16.40
2022-12-19T10:51:23.092Z,16.03
2022-12-19T10:53:56.934Z,16.77
2022-12-19T10:56:36.819Z,17.90
2022-12-19T10:59:16.153Z,17.23
2022-12-19T11:01:45.126Z,18.33
2022-12-19T11:04:28.718Z,22.13
2022-12-19T11:07:18.031Z,26.63
2022-12-19T11:10:03.700Z,24.87
2022-12-19T11:16:53.895Z,18.80
2022-12-19T11:20:46.435Z,11.10
2022-12-19T11:27:03.941Z,9.83
2022-12-19T11:29:44.348Z,10.00
2022-12-19T11:30:35.301Z,8.80
2022-12-19T11:30:48.854Z,8.97
2022-12-19T11:32:42.252Z,8.17
2022-12-19T11:35:19.890Z,9.07
2022-12-19T11:37:56.083Z,8.57
2022-12-19T11:40:33.751Z,8.57
2022-12-19T11:43:43.048Z,7.67
2022-12-19T11:46:02.854Z,7.73
2022-12-19T11:48:39.705Z,7.80
2022-12-19T11:51:16.842Z,8.37
2022-12-19T11:53:50.549Z,8.47
2022-12-19T11:56:21.754Z,8.23
2022-12-19T11:58:52.284Z,8.97
2022-12-19T12:01:34.019Z,14.10
2022-12-19T12:04:19.024Z,19.17
2022-12-19T12:06:51.975Z,16.00
2022-12-19T12:13:17.287Z,16.20
2022-12-19T12:22:58.950Z,14.40
2022-12-19T12:31:12.903Z,9.13
2022-12-19T12:31:16.553Z,7.73
2022-12-19T12:31:28.278Z,8.27
2022-12-19T12:31:53.296Z,7.90
2022-12-19T12:31:58.100Z,7.53
2022-12-19T12:32:05.262Z,7.50
2022-12-19T12:35:56.814Z,7.00
2022-12-19T12:39:20.940Z,11.80
2022-12-19T12:42:06.456Z,13.87
2022-12-19T12:44:42.880Z,14.17
2022-12-19T12:47:18.025Z,15.10
2022-12-19T12:49:51.413Z,15.60
2022-12-19T12:52:22.511Z,15.33
2022-12-19T12:54:51.508Z,15.40
2022-12-19T12:57:33.870Z,15.87
2022-12-19T13:00:26.436Z,15.20
2022-12-19T13:03:00.262Z,15.43
2022-12-19T13:05:41.589Z,14.37
2022-12-19T13:08:32.058Z,11.43
2022-12-19T13:11:03.020Z,10.27
2022-12-19T13:13:52.469Z,9.17
2022-12-19T13:16:53.341Z,8.30
2022-12-19T13:19:28.307Z,7.47
2022-12-19T13:22:41.409Z,9.03
2022-12-19T13:25:45.845Z,7.43
2022-12-19T13:28:32.707Z,7.93
2022-12-19T13:31:22.937Z,7.30
2022-12-19T13:34:17.103Z,6.77
2022-12-19T13:39:49.404Z,7.13
2022-12-19T13:40:10.896Z,8.10
2022-12-19T13:43:13.156Z,15.70
2022-12-19T13:45:54.466Z,8.77
2022-12-19T13:48:30.288Z,6.43
2022-12-19T13:51:00.241Z,7.10
2022-12-19T13:53:30.572Z,7.50
2022-12-19T13:56:03.586Z,6.40
2022-12-19T13:58:34.395Z,8.40
2022-12-19T14:01:04.630Z,7.47
2022-12-19T14:03:38.255Z,8.53
2022-12-19T14:06:16.421Z,10.63
2022-12-19T14:08:59.261Z,7.43
2022-12-19T14:13:38.855Z,5.30
2022-12-19T14:15:01.998Z,8.27
2022-12-19T14:17:39.729Z,9.70
2022-12-19T14:22:02.580Z,6.33
2022-12-19T14:23:11.892Z,5.13
2022-12-19T14:28:17.162Z,7.80
2022-12-19T14:28:40.448Z,5.50
2022-12-19T14:31:13.413Z,8.00
2022-12-19T14:34:04.788Z,5.53
2022-12-19T14:36:34.149Z,7.53
2022-12-19T14:39:22.604Z,5.83
2022-12-19T14:42:11.837Z,6.37
2022-12-19T14:53:17.917Z,5.83
2022-12-19T14:54:06.174Z,5.87
2022-12-19T14:54:08.730Z,6.77
2022-12-19T14:54:55.333Z,8.93
2022-12-19T14:56:31.012Z,8.10
2022-12-19T14:59:00.944Z,6.90
2022-12-19T15:01:33.399Z,9.50
2022-12-19T15:04:51.952Z,6.60
2022-12-19T15:07:08.077Z,5.83
2022-12-19T15:11:07.709Z,6.20
2022-12-19T15:14:53.786Z,5.53
2022-12-19T15:16:24.120Z,6.37
2022-12-19T15:18:55.102Z,6.93
2022-12-19T15:21:22.984Z,7.10
2022-12-19T15:23:51.182Z,6.37
2022-12-19T15:26:20.929Z,6.73
2022-12-19T15:28:50.797Z,6.60
2022-12-19T15:31:28.601Z,6.70
2022-12-19T15:36:46.185Z,6.87
2022-12-19T15:39:14.912Z,6.13
2022-12-19T15:41:44.162Z,6.67
2022-12-19T15:44:24.781Z,6.60
2022-12-19T15:46:56.770Z,6.87
2022-12-19T15:49:26.300Z,6.80
2022-12-19T15:51:54.350Z,5.90
2022-12-19T15:57:20.575Z,7.07
2022-12-19T15:59:48.672Z,5.63
2022-12-19T16:02:19.626Z,6.67
2022-12-19T16:04:50.990Z,5.67
2022-12-19T16:07:20.763Z,6.53
2022-12-19T16:09:49.544Z,6.70
2022-12-19T16:12:20.041Z,6.37
2022-12-19T16:14:50.404Z,8.83
2022-12-19T16:17:21.725Z,14.03
2022-12-19T16:19:51.777Z,25.20
2022-12-19T16:22:22.663Z,50.73
2022-12-19T16:24:51.292Z,37.27
2022-12-19T16:27:23.839Z,26.67
2022-12-19T16:29:52.867Z,26.50
2022-12-19T16:32:22.980Z,25.13
2022-12-19T16:34:52.717Z,23.37
2022-12-19T16:37:20.956Z,28.40
2022-12-19T16:39:49.047Z,30.23
2022-12-19T16:42:18.909Z,31.00
2022-12-19T16:44:48.776Z,30.80
2022-12-19T16:47:18.852Z,23.40
2022-12-19T16:49:46.926Z,35.27
2022-12-19T16:52:16.187Z,33.73
2022-12-19T16:54:44.133Z,34.37
2022-12-19T16:57:20.066Z,30.67
2022-12-19T16:59:48.773Z,28.77
2022-12-19T17:02:40.352Z,29.17
2022-12-19T17:05:14.858Z,26.83
2022-12-19T17:07:44.636Z,24.30
2022-12-19T17:10:12.874Z,23.03
2022-12-19T17:12:41.885Z,11.03
2022-12-19T17:15:23.781Z,29.87
2022-12-19T17:17:53.457Z,38.43
2022-12-19T17:20:23.476Z,37.90
2022-12-19T17:22:52.855Z,31.20
2022-12-19T17:25:24.928Z,32.20
2022-12-19T17:27:54.223Z,15.97
2022-12-19T17:30:23.230Z,12.80
2022-12-19T17:32:54.052Z,14.03
2022-12-19T17:35:27.860Z,13.80
2022-12-19T17:37:59.467Z,12.63
2022-12-19T17:40:29.531Z,14.77
2022-12-19T17:42:57.761Z,25.50
2022-12-19T17:45:26.802Z,19.67
2022-12-19T17:48:02.121Z,23.50
2022-12-19T17:50:38.311Z,19.53
2022-12-19T17:53:13.520Z,18.47
2022-12-19T17:55:42.423Z,18.90
2022-12-19T17:58:10.960Z,18.40
2022-12-19T18:00:40.665Z,14.30
2022-12-19T18:03:19.888Z,20.50
2022-12-19T18:05:50.510Z,21.20
2022-12-19T18:08:25.801Z,26.70
2022-12-19T18:10:56.446Z,15.43
2022-12-19T18:13:24.916Z,18.47
2022-12-19T18:15:56.445Z,22.93
2022-12-19T18:18:30.659Z,14.77
2022-12-19T18:20:59.758Z,15.77
2022-12-19T18:23:30.436Z,16.63
2022-12-19T18:26:01.955Z,17.57
2022-12-19T18:28:30.482Z,38.27
2022-12-19T18:31:02.810Z,23.40
2022-12-19T18:33:35.737Z,19.07
2022-12-19T18:36:03.785Z,20.20
2022-12-19T18:38:33.113Z,18.13
2022-12-19T18:41:01.296Z,16.40
2022-12-19T18:43:31.000Z,15.20
2022-12-19T18:45:59.267Z,14.77
2022-12-19T18:48:29.276Z,14.57
2022-12-19T18:50:58.793Z,15.90
2022-12-19T18:53:35.312Z,16.00
2022-12-19T18:56:06.696Z,17.50
2022-12-19T18:58:35.317Z,17.03
2022-12-19T19:01:05.979Z,21.00
2022-12-19T19:03:36.275Z,16.60
2022-12-19T19:06:05.414Z,16.57
2022-12-19T19:08:35.222Z,15.87
2022-12-19T19:11:23.333Z,15.83
2022-12-19T19:13:51.453Z,17.00
2022-12-19T19:16:21.392Z,15.97
2022-12-19T19:18:53.515Z,17.17
2022-12-19T19:21:23.540Z,17.20
2022-12-19T19:23:56.845Z,17.50
2022-12-19T19:26:26.155Z,16.97
2022-12-19T19:28:54.080Z,18.83
2022-12-19T19:31:26.066Z,18.83
2022-12-19T19:33:56.463Z,17.87
2022-12-19T19:36:29.109Z,22.67
2022-12-19T19:38:58.429Z,20.70
2022-12-19T19:41:29.845Z,23.40
2022-12-19T19:43:58.733Z,20.77
2022-12-19T19:46:27.163Z,15.70
2022-12-19T19:48:55.418Z,16.13
2022-12-19T19:51:23.403Z,15.63
2022-12-19T19:53:52.173Z,17.23
2022-12-19T19:56:20.131Z,15.50
2022-12-19T19:58:49.372Z,15.40
2022-12-19T20:01:17.480Z,15.40
2022-12-19T20:03:45.587Z,15.93
2022-12-19T20:06:13.653Z,14.87
2022-12-19T20:08:41.695Z,28.07
2022-12-19T20:11:10.531Z,39.03
2022-12-19T20:13:39.333Z,29.43
2022-12-19T20:16:11.115Z,25.17
2022-12-19T20:18:40.511Z,24.80
2022-12-19T20:21:12.985Z,26.10
2022-12-19T20:23:43.077Z,26.07
2022-12-19T20:26:12.269Z,29.03
2022-12-19T20:28:47.735Z,41.13
2022-12-19T20:31:18.284Z,30.67
2022-12-19T20:33:46.658Z,22.30
2022-12-19T20:36:15.313Z,31.63
2022-12-19T20:38:43.734Z,29.83
2022-12-19T20:41:11.713Z,25.37
2022-12-19T20:43:39.838Z,24.67
2022-12-19T20:46:09.650Z,22.33
2022-12-19T20:48:39.661Z,20.23
2022-12-19T20:51:08.579Z,20.80
2022-12-19T20:53:37.634Z,19.13
2022-12-19T20:56:07.279Z,17.77
2022-12-19T20:58:37.500Z,16.40
2022-12-19T21:01:07.580Z,16.67
2022-12-19T21:03:36.312Z,15.93
2022-12-19T21:06:06.506Z,14.57
2022-12-19T21:08:35.078Z,14.80
2022-12-19T21:11:04.075Z,14.80
2022-12-19T21:13:32.462Z,15.07
2022-12-19T21:16:02.900Z,14.80
2022-12-19T21:18:31.673Z,14.00
2022-12-19T21:21:00.611Z,14.10
2022-12-19T21:23:30.717Z,14.37
2022-12-19T21:26:01.138Z,13.57
2022-12-19T21:28:29.561Z,12.73
2022-12-19T21:30:59.101Z,13.07
2022-12-19T21:33:27.852Z,15.10
2022-12-19T21:35:56.229Z,13.67
2022-12-19T21:38:24.886Z,13.83
2022-12-19T21:40:54.095Z,14.70
2022-12-19T21:43:22.037Z,13.60
2022-12-19T21:45:50.131Z,14.20
2022-12-19T21:48:18.640Z,14.43
2022-12-19T21:50:46.624Z,15.23
2022-12-19T21:53:14.559Z,15.20
2022-12-19T21:55:42.586Z,15.37
2022-12-19T21:58:11.931Z,13.90
2022-12-19T22:00:39.908Z,14.10
2022-12-19T22:03:15.702Z,13.80
2022-12-19T22:05:43.858Z,13.70
2022-12-19T22:08:12.232Z,13.80
2022-12-19T22:10:40.698Z,13.07
2022-12-19T22:13:08.626Z,14.07
2022-12-19T22:15:38.024Z,12.53
2022-12-19T22:18:06.070Z,13.10
2022-12-19T22:20:34.127Z,14.00
2022-12-19T22:23:03.390Z,13.30
2022-12-19T22:25:37.561Z,13.10
2022-12-19T22:28:12.170Z,12.97
2022-12-19T22:30:41.582Z,14.17
2022-12-19T22:33:09.437Z,13.80
2022-12-19T22:35:37.274Z,9.73
2022-12-19T22:38:05.145Z,10.00
2022-12-19T22:40:33.530Z,12.03
2022-12-19T22:43:01.388Z,13.93
2022-12-19T22:45:31.570Z,14.23
2022-12-19T22:48:01.033Z,17.93
2022-12-19T22:50:28.902Z,17.80
2022-12-19T22:52:56.849Z,13.20
2022-12-19T22:55:24.799Z,11.57
2022-12-19T22:57:53.061Z,12.80
2022-12-19T23:00:21.604Z,13.10
2022-12-19T23:02:49.661Z,14.73
2022-12-19T23:05:19.501Z,14.30
2022-12-19T23:07:47.515Z,14.67
2022-12-19T23:10:15.500Z,13.70
2022-12-19T23:12:43.616Z,18.30
2022-12-19T23:15:12.015Z,19.93
2022-12-19T23:17:39.916Z,13.70
2022-12-19T23:20:09.583Z,14.00
2022-12-19T23:22:38.840Z,14.60
2022-12-19T23:25:08.079Z,14.33
2022-12-19T23:27:36.026Z,13.47
2022-12-19T23:30:03.989Z,12.87
2022-12-19T23:32:32.639Z,12.47
2022-12-19T23:35:00.612Z,11.87
2022-12-19T23:37:28.471Z,12.63
2022-12-19T23:39:57.745Z,11.97
2022-12-19T23:42:25.672Z,12.00
2022-12-19T23:44:53.593Z,12.60
2022-12-19T23:47:21.468Z,13.03
2022-12-19T23:49:49.388Z,13.67
2022-12-19T23:52:17.282Z,13.00
2022-12-19T23:54:45.204Z,16.93
2022-12-19T23:57:14.494Z,14.63
2022-12-19T23:59:42.378Z,11.67
